createdAt,value
2022-12-08T00:06:33.392Z,10.10
2022-12-08T00:16:36.712Z,10.30
2022-12-08T00:26:38.693Z,11.88
2022-12-08T00:36:43.023Z,8.23
2022-12-08T00:46:45.254Z,10.45
2022-12-08T00:56:48.515Z,9.63
2022-12-08T01:06:50.516Z,10.00
2022-12-08T01:16:53.912Z,10.77
2022-12-08T01:26:55.867Z,10.77
2022-12-08T01:36:59.160Z,10.07
2022-12-08T01:47:01.118Z,10.23
2022-12-08T01:57:09.719Z,10.20
2022-12-08T02:07:16.242Z,9.27
2022-12-08T02:17:37.332Z,10.70
2022-12-08T02:27:46.707Z,9.95
2022-12-08T02:37:57.416Z,10.05
2022-12-08T02:48:00.351Z,10.00
2022-12-08T02:58:43.639Z,10.43
2022-12-08T03:08:51.077Z,9.40
2022-12-08T03:19:09.079Z,10.75
2022-12-08T03:29:11.914Z,8.20
2022-12-08T03:39:15.212Z,10.07
2022-12-08T03:49:17.194Z,10.95
2022-12-08T03:59:20.446Z,9.70
2022-12-08T04:09:22.504Z,11.32
2022-12-08T04:19:25.871Z,11.05
2022-12-08T04:29:27.763Z,10.05
2022-12-08T04:39:31.008Z,10.98
2022-12-08T04:49:32.918Z,11.77
2022-12-08T04:59:36.435Z,9.95
2022-12-08T05:09:38.368Z,10.48
2022-12-08T05:19:41.716Z,10.32
2022-12-08T05:29:43.627Z,12.65
2022-12-08T05:39:46.901Z,12.23
2022-12-08T05:49:48.797Z,11.27
2022-12-08T05:59:52.054Z,13.15
2022-12-08T06:09:53.951Z,11.95
2022-12-08T06:19:57.251Z,11.13
2022-12-08T06:29:59.410Z,12.30
2022-12-08T06:40:03.110Z,11.00
2022-12-08T06:50:07.616Z,11.57
2022-12-08T07:00:12.635Z,11.95
2022-12-08T07:10:14.589Z,11.88
2022-12-08T07:20:18.209Z,11.75
2022-12-08T07:30:20.581Z,13.02
2022-12-08T07:40:23.881Z,13.15
2022-12-08T07:50:25.814Z,17.73
2022-12-08T08:00:29.281Z,13.57
2022-12-08T08:10:31.401Z,13.25
2022-12-08T08:20:34.704Z,12.20
2022-12-08T08:30:36.624Z,12.82
2022-12-08T08:40:39.882Z,12.60
2022-12-08T08:50:41.787Z,12.05
2022-12-08T09:00:45.060Z,12.20
2022-12-08T09:10:47.097Z,12.10
2022-12-08T09:20:50.378Z,10.32
2022-12-08T09:30:52.662Z,12.05
2022-12-08T09:40:56.371Z,11.30
2022-12-08T09:50:58.915Z,10.05
2022-12-08T10:01:02.331Z,10.68
2022-12-08T10:11:13.497Z,10.77
2022-12-08T10:21:20.602Z,10.98
2022-12-08T10:31:25.027Z,11.63
2022-12-08T10:41:28.388Z,11.88
2022-12-08T10:51:39.049Z,10.82
2022-12-08T11:01:47.912Z,11.50
2022-12-08T11:11:52.735Z,11.15
2022-12-08T11:21:56.089Z,11.73
2022-12-08T11:32:02.021Z,10.63
2022-12-08T11:42:08.564Z,10.23
2022-12-08T11:52:18.836Z,13.20
2022-12-08T12:02:24.939Z,12.10
2022-12-08T12:12:40.196Z,12.88
2022-12-08T12:22:46.612Z,12.73
2022-12-08T12:32:52.499Z,13.27
2022-12-08T12:43:22.243Z,11.05
2022-12-08T12:53:47.238Z,13.27
2022-12-08T13:04:02.243Z,9.65
2022-12-08T13:14:05.013Z,11.18
2022-12-08T13:24:26.924Z,12.57
2022-12-08T13:34:36.800Z,11.48
2022-12-08T14:06:11.275Z,11.52
2022-12-08T14:16:04.491Z,11.15
2022-12-08T14:26:10.321Z,10.45
2022-12-08T14:36:13.776Z,9.32
2022-12-08T14:57:14.950Z,7.80
2022-12-08T15:07:20.759Z,5.57
2022-12-08T15:17:32.994Z,9.48
2022-12-08T15:27:45.387Z,5.38
2022-12-08T15:37:53.328Z,8.65
2022-12-08T15:47:56.332Z,6.97
2022-12-08T16:08:45.030Z,9.60
2022-12-08T16:18:45.403Z,11.43
2022-12-08T16:28:55.036Z,12.18
2022-12-08T16:38:58.501Z,12.93
2022-12-08T16:49:00.481Z,15.73
2022-12-08T16:59:03.802Z,15.63
2022-12-08T17:09:05.830Z,14.43
2022-12-08T17:19:09.429Z,15.43
2022-12-08T17:29:11.341Z,16.83
2022-12-08T17:39:18.336Z,16.08
2022-12-08T17:49:22.851Z,16.20
2022-12-08T17:59:27.361Z,14.73
2022-12-08T18:09:31.235Z,15.30
2022-12-08T18:19:34.613Z,15.00
2022-12-08T18:29:36.524Z,14.48
2022-12-08T18:39:39.849Z,16.33
2022-12-08T18:49:41.959Z,15.00
2022-12-08T18:59:45.380Z,14.77
2022-12-08T19:09:47.332Z,13.07
2022-12-08T19:19:50.635Z,13.23
2022-12-08T19:29:52.575Z,12.30
2022-12-08T19:39:55.880Z,13.40
2022-12-08T19:49:58.329Z,12.23
2022-12-08T20:00:01.614Z,14.07
2022-12-08T20:10:05.255Z,12.48
2022-12-08T20:20:10.660Z,12.57
2022-12-08T20:30:17.076Z,12.02
2022-12-08T20:40:20.850Z,12.70
2022-12-08T20:50:22.862Z,14.77
2022-12-08T21:00:26.368Z,11.82
2022-12-08T21:10:28.577Z,12.57
2022-12-08T21:20:31.887Z,11.35
2022-12-08T21:30:33.982Z,13.23
2022-12-08T21:40:37.384Z,11.75
2022-12-08T21:50:39.400Z,11.45
2022-12-08T22:00:42.827Z,10.30
2022-12-08T22:10:47.328Z,12.75
2022-12-08T22:20:50.983Z,10.02
2022-12-08T22:30:53.155Z,10.93
2022-12-08T22:40:56.472Z,10.43
2022-12-08T22:50:59.009Z,10.90
2022-12-08T23:01:02.666Z,10.48
2022-12-08T23:11:04.784Z,11.27
2022-12-08T23:21:10.633Z,10.85
2022-12-08T23:31:12.857Z,10.52
2022-12-08T23:41:16.694Z,12.13
2022-12-08T23:51:19.154Z,10.13
